createdAt,value
2023-03-27T00:02:03.937Z,7.30
2023-03-27T00:04:30.423Z,7.27
2023-03-27T00:06:57.249Z,6.93
2023-03-27T00:09:23.719Z,6.83
2023-03-27T00:11:50.222Z,6.33
2023-03-27T00:14:16.824Z,6.40
2023-03-27T00:16:43.272Z,6.00
2023-03-27T00:19:09.861Z,5.93
2023-03-27T00:21:36.411Z,5.73
2023-03-27T00:24:02.900Z,5.00
2023-03-27T00:26:30.596Z,5.10
2023-03-27T00:28:57.314Z,5.47
2023-03-27T00:31:23.892Z,5.20
2023-03-27T00:33:50.531Z,4.90
2023-03-27T00:36:17.218Z,5.67
2023-03-27T00:38:45.188Z,5.00
2023-03-27T00:41:12.547Z,4.53
2023-03-27T00:43:43.805Z,5.53
2023-03-27T00:46:43.803Z,5.00
2023-03-27T00:49:13.412Z,4.10
2023-03-27T00:51:42.933Z,4.53
2023-03-27T00:54:12.579Z,5.07
2023-03-27T00:56:39.233Z,4.43
2023-03-27T00:59:12.487Z,4.90
2023-03-27T01:01:40.162Z,5.03
2023-03-27T01:04:08.881Z,4.33
2023-03-27T01:06:36.803Z,4.40
2023-03-27T01:09:04.599Z,4.83
2023-03-27T01:11:56.095Z,5.10
2023-03-27T01:14:22.646Z,4.97
2023-03-27T01:17:16.071Z,4.80
2023-03-27T01:19:57.431Z,4.93
2023-03-27T01:22:56.823Z,5.47
2023-03-27T01:25:50.636Z,5.23
2023-03-27T01:28:42.465Z,5.03
2023-03-27T01:31:24.182Z,5.43
2023-03-27T01:34:15.710Z,4.63
2023-03-27T01:37:21.815Z,4.83
2023-03-27T01:40:27.881Z,5.07
2023-03-27T01:43:04.783Z,4.23
2023-03-27T01:45:42.526Z,3.90
2023-03-27T01:48:15.888Z,3.40
2023-03-27T01:50:48.442Z,3.53
2023-03-27T01:53:22.824Z,3.20
2023-03-27T01:56:26.315Z,2.60
2023-03-27T01:59:11.143Z,2.90
2023-03-27T02:01:42.282Z,2.70
2023-03-27T02:04:16.461Z,2.83
2023-03-27T02:06:54.142Z,2.43
2023-03-27T02:09:36.584Z,2.13
2023-03-27T02:12:15.314Z,1.93
2023-03-27T02:14:54.941Z,2.27
2023-03-27T02:17:26.284Z,2.40
2023-03-27T02:20:00.397Z,2.13
2023-03-27T02:22:38.249Z,2.00
2023-03-27T02:25:23.293Z,2.33
2023-03-27T02:27:57.204Z,1.67
2023-03-27T02:30:36.224Z,1.53
2023-03-27T02:33:29.692Z,1.60
2023-03-27T02:36:00.436Z,1.70
2023-03-27T02:38:41.156Z,1.87
2023-03-27T02:41:32.515Z,1.47
2023-03-27T02:44:46.454Z,1.20
2023-03-27T02:47:28.493Z,1.33
2023-03-27T02:49:59.968Z,1.23
2023-03-27T02:52:45.452Z,1.10
2023-03-27T02:55:17.291Z,1.27
2023-03-27T02:57:52.675Z,1.10
2023-03-27T03:00:26.186Z,1.40
2023-03-27T03:03:10.967Z,1.27
2023-03-27T03:05:38.035Z,1.27
2023-03-27T03:08:05.769Z,2.03
2023-03-27T03:10:33.337Z,1.40
2023-03-27T03:12:59.852Z,1.30
2023-03-27T03:15:27.098Z,1.17
2023-03-27T03:17:53.942Z,1.27
2023-03-27T03:20:21.508Z,1.10
2023-03-27T03:22:49.285Z,1.30
2023-03-27T03:25:17.828Z,1.33
2023-03-27T03:27:44.653Z,1.10
2023-03-27T03:30:17.365Z,1.20
2023-03-27T03:32:58.208Z,1.13
2023-03-27T03:35:25.149Z,1.63
2023-03-27T03:37:57.642Z,1.67
2023-03-27T03:40:24.314Z,1.00
2023-03-27T03:42:55.365Z,1.20
2023-03-27T03:45:25.735Z,1.20
2023-03-27T03:47:52.358Z,1.07
2023-03-27T03:50:18.933Z,1.23
2023-03-27T03:52:45.969Z,1.47
2023-03-27T03:55:12.718Z,1.40
2023-03-27T03:57:39.253Z,1.30
2023-03-27T04:00:14.038Z,1.47
2023-03-27T04:02:53.690Z,1.27
2023-03-27T04:05:21.995Z,1.50
2023-03-27T04:07:52.274Z,1.40
2023-03-27T04:10:39.477Z,1.53
2023-03-27T04:13:14.906Z,1.10
2023-03-27T04:15:53.007Z,1.17
2023-03-27T04:18:33.013Z,1.10
2023-03-27T04:21:03.017Z,1.43
2023-03-27T04:23:33.202Z,1.20
2023-03-27T04:26:02.964Z,1.23
2023-03-27T04:28:51.705Z,1.20
2023-03-27T04:31:46.515Z,1.20
2023-03-27T04:34:33.143Z,1.50
2023-03-27T04:37:06.466Z,1.37
2023-03-27T04:39:39.706Z,1.20
2023-03-27T04:42:06.531Z,1.20
2023-03-27T04:44:34.878Z,1.30
2023-03-27T04:47:02.306Z,1.33
2023-03-27T04:49:29.599Z,1.57
2023-03-27T04:52:02.899Z,1.20
2023-03-27T04:54:31.847Z,1.30
2023-03-27T04:57:01.902Z,1.40
2023-03-27T04:59:31.837Z,1.43
2023-03-27T05:02:31.227Z,1.93
2023-03-27T05:05:03.056Z,2.00
2023-03-27T05:07:32.765Z,1.47
2023-03-27T05:10:02.037Z,1.30
2023-03-27T05:12:29.200Z,1.60
2023-03-27T05:15:00.524Z,1.40
2023-03-27T05:17:40.782Z,1.80
2023-03-27T05:20:19.212Z,1.63
2023-03-27T05:22:46.582Z,1.60
2023-03-27T05:25:22.436Z,1.93
2023-03-27T05:27:50.766Z,1.63
2023-03-27T05:30:20.951Z,1.83
2023-03-27T05:32:52.573Z,2.20
2023-03-27T05:35:30.908Z,1.60
2023-03-27T05:37:58.882Z,2.00
2023-03-27T05:40:39.639Z,1.67
2023-03-27T05:43:08.313Z,2.50
2023-03-27T05:45:36.245Z,1.77
2023-03-27T05:48:03.867Z,1.60
2023-03-27T05:50:35.411Z,1.63
2023-03-27T05:53:09.810Z,1.60
2023-03-27T05:55:40.048Z,1.90
2023-03-27T05:58:09.565Z,2.17
2023-03-27T06:00:36.602Z,1.93
2023-03-27T06:03:04.284Z,1.90
2023-03-27T06:06:00.176Z,1.90
2023-03-27T06:08:30.539Z,1.80
2023-03-27T06:10:58.605Z,1.50
2023-03-27T06:13:32.605Z,2.00
2023-03-27T06:16:07.651Z,2.70
2023-03-27T06:18:53.162Z,2.27
2023-03-27T06:21:20.954Z,2.03
2023-03-27T06:23:49.086Z,1.87
2023-03-27T06:26:16.948Z,1.70
2023-03-27T06:28:43.552Z,1.83
2023-03-27T06:31:14.818Z,2.17
2023-03-27T06:33:55.064Z,1.73
2023-03-27T06:36:34.738Z,1.93
2023-03-27T06:39:06.280Z,1.50
2023-03-27T06:41:33.944Z,1.70
2023-03-27T06:44:00.504Z,1.60
2023-03-27T06:46:52.776Z,1.70
2023-03-27T06:49:26.192Z,1.37
2023-03-27T06:51:53.226Z,1.47
2023-03-27T06:54:21.266Z,1.73
2023-03-27T06:56:51.662Z,1.60
2023-03-27T06:59:20.910Z,1.63
2023-03-27T07:01:52.394Z,1.40
2023-03-27T07:04:30.225Z,1.77
2023-03-27T07:07:12.297Z,1.53
2023-03-27T07:09:42.048Z,1.83
2023-03-27T07:12:11.043Z,1.63
2023-03-27T07:14:40.479Z,1.37
2023-03-27T07:17:09.229Z,1.47
2023-03-27T07:19:50.453Z,1.33
2023-03-27T07:22:19.084Z,1.50
2023-03-27T07:24:45.545Z,1.53
2023-03-27T07:27:11.996Z,1.53
2023-03-27T07:29:39.715Z,1.60
2023-03-27T07:32:09.200Z,1.63
2023-03-27T07:34:42.696Z,1.90
2023-03-27T07:37:38.103Z,1.03
2023-03-27T07:40:37.017Z,1.80
2023-03-27T07:43:24.649Z,1.50
2023-03-27T07:45:51.399Z,1.13
2023-03-27T07:48:18.758Z,1.07
2023-03-27T07:50:46.245Z,1.37
2023-03-27T07:53:34.473Z,1.70
2023-03-27T07:56:14.288Z,1.43
2023-03-27T07:58:43.103Z,1.40
2023-03-27T08:01:11.572Z,1.60
2023-03-27T08:03:39.446Z,1.70
2023-03-27T08:06:07.502Z,1.50
2023-03-27T08:08:34.313Z,1.37
2023-03-27T08:11:03.830Z,1.10
2023-03-27T08:13:35.450Z,1.37
2023-03-27T08:16:03.397Z,1.50
2023-03-27T08:18:30.160Z,1.50
2023-03-27T08:20:57.358Z,1.27
2023-03-27T08:23:27.281Z,1.23
2023-03-27T08:26:14.524Z,1.47
2023-03-27T08:28:53.953Z,1.20
2023-03-27T08:31:22.848Z,1.50
2023-03-27T08:33:49.613Z,1.30
2023-03-27T08:36:23.034Z,1.70
2023-03-27T08:38:51.457Z,1.60
2023-03-27T08:41:38.574Z,1.60
2023-03-27T08:44:31.035Z,1.20
2023-03-27T08:47:16.898Z,1.43
2023-03-27T08:49:58.225Z,1.33
2023-03-27T08:52:34.124Z,1.20
2023-03-27T08:55:15.258Z,1.30
2023-03-27T08:57:51.097Z,1.30
2023-03-27T09:00:27.755Z,1.40
2023-03-27T09:03:15.588Z,1.00
2023-03-27T09:05:53.737Z,1.27
2023-03-27T09:08:27.762Z,1.10
2023-03-27T09:11:08.211Z,1.33
2023-03-27T09:13:49.452Z,1.30
2023-03-27T09:16:26.269Z,1.10
2023-03-27T09:19:10.445Z,1.13
2023-03-27T09:21:44.617Z,0.90
2023-03-27T09:24:32.932Z,1.10
2023-03-27T09:27:28.691Z,1.33
2023-03-27T09:30:22.254Z,1.60
2023-03-27T09:33:03.708Z,1.73
2023-03-27T09:35:30.488Z,1.80
2023-03-27T09:38:03.973Z,1.40
2023-03-27T09:40:44.926Z,1.30
2023-03-27T09:43:18.808Z,1.30
2023-03-27T09:45:47.773Z,1.30
2023-03-27T09:48:40.175Z,1.47
2023-03-27T09:51:37.192Z,1.60
2023-03-27T09:54:06.406Z,2.03
2023-03-27T09:56:51.935Z,1.80
2023-03-27T09:59:33.037Z,1.70
2023-03-27T10:02:20.360Z,1.73
2023-03-27T10:05:12.158Z,1.60
2023-03-27T10:07:40.753Z,1.70
2023-03-27T10:10:22.000Z,1.43
2023-03-27T10:13:04.310Z,1.43
2023-03-27T10:15:38.868Z,1.50
2023-03-27T10:18:22.505Z,1.77
2023-03-27T10:20:52.701Z,1.50
2023-03-27T10:23:39.464Z,1.60
2023-03-27T10:26:08.392Z,1.73
2023-03-27T10:28:53.013Z,1.23
2023-03-27T10:31:30.897Z,1.00
2023-03-27T10:34:26.189Z,0.93
2023-03-27T10:37:32.364Z,1.00
2023-03-27T10:40:19.623Z,1.10
2023-03-27T10:42:50.048Z,1.23
2023-03-27T10:45:22.049Z,1.00
2023-03-27T10:47:59.093Z,1.00
2023-03-27T10:50:35.647Z,1.13
2023-03-27T10:53:37.854Z,1.13
2023-03-27T10:56:26.269Z,0.87
2023-03-27T10:59:12.242Z,1.10
2023-03-27T11:01:45.209Z,1.00
2023-03-27T11:04:17.761Z,1.07
2023-03-27T11:06:52.554Z,1.20
2023-03-27T11:09:26.859Z,1.23
2023-03-27T11:12:10.239Z,1.17
2023-03-27T11:14:53.822Z,1.10
2023-03-27T11:17:44.312Z,0.90
2023-03-27T11:20:50.296Z,0.90
2023-03-27T11:23:44.550Z,0.83
2023-03-27T11:26:19.586Z,0.80
2023-03-27T11:28:52.972Z,0.90
2023-03-27T11:31:40.542Z,0.70
2023-03-27T11:34:15.362Z,0.90
2023-03-27T11:36:59.603Z,0.80
2023-03-27T11:39:55.234Z,0.87
2023-03-27T11:42:31.388Z,0.90
2023-03-27T11:44:59.610Z,0.70
2023-03-27T11:47:50.753Z,0.93
2023-03-27T11:50:47.496Z,0.80
2023-03-27T11:53:21.391Z,0.90
2023-03-27T11:56:34.294Z,0.70
2023-03-27T11:59:48.447Z,0.77
2023-03-27T12:02:40.899Z,0.70
2023-03-27T12:05:33.844Z,0.77
2023-03-27T12:08:22.620Z,0.60
2023-03-27T12:10:54.551Z,0.73
2023-03-27T12:14:08.894Z,0.63
2023-03-27T12:17:28.129Z,0.60
2023-03-27T12:20:21.490Z,0.80
2023-03-27T12:23:09.785Z,1.20
2023-03-27T12:25:56.516Z,0.50
2023-03-27T12:29:23.176Z,0.77
2023-03-27T12:32:15.597Z,0.63
2023-03-27T12:35:03.414Z,0.80
2023-03-27T12:37:50.856Z,0.70
2023-03-27T12:40:38.959Z,0.83
2023-03-27T12:43:29.559Z,0.63
2023-03-27T12:46:19.112Z,1.00
2023-03-27T12:49:13.287Z,0.97
2023-03-27T12:52:04.816Z,0.80
2023-03-27T12:55:30.964Z,0.80
2023-03-27T12:57:58.364Z,0.60
2023-03-27T13:01:01.840Z,0.67
2023-03-27T13:03:59.237Z,0.50
2023-03-27T13:06:38.629Z,0.30
2023-03-27T13:09:33.368Z,0.60
2023-03-27T13:12:29.570Z,0.60
2023-03-27T13:15:40.915Z,0.70
2023-03-27T13:18:36.031Z,0.60
2023-03-27T13:21:19.040Z,0.40
2023-03-27T13:24:00.592Z,0.40
2023-03-27T13:26:47.674Z,0.40
2023-03-27T13:29:26.334Z,0.40
2023-03-27T13:31:59.976Z,0.40
2023-03-27T13:34:41.332Z,0.40
2023-03-27T13:37:15.937Z,0.50
2023-03-27T13:39:58.718Z,0.50
2023-03-27T13:42:34.314Z,0.53
2023-03-27T13:45:46.509Z,0.50
2023-03-27T13:49:00.672Z,0.50
2023-03-27T13:51:55.140Z,0.40
2023-03-27T13:54:51.214Z,0.60
2023-03-27T13:57:48.550Z,0.50
2023-03-27T14:00:24.108Z,0.50
2023-03-27T14:03:32.373Z,0.50
2023-03-27T14:06:40.651Z,0.40
2023-03-27T14:09:35.779Z,0.50
2023-03-27T14:12:22.631Z,0.50
2023-03-27T14:15:18.625Z,0.50
2023-03-27T14:18:21.957Z,0.60
2023-03-27T14:21:02.121Z,0.80
2023-03-27T14:23:49.303Z,0.60
2023-03-27T14:26:30.442Z,0.80
2023-03-27T14:29:00.768Z,0.60
2023-03-27T14:31:44.455Z,0.60
2023-03-27T14:34:43.480Z,0.50
2023-03-27T14:37:36.239Z,0.57
2023-03-27T14:40:23.164Z,0.60
2023-03-27T14:42:52.603Z,0.70
2023-03-27T14:45:23.552Z,0.70
2023-03-27T14:47:59.894Z,0.43
2023-03-27T14:50:31.835Z,0.60
2023-03-27T14:52:59.203Z,0.50
2023-03-27T14:55:34.738Z,0.50
2023-03-27T14:58:22.470Z,0.50
2023-03-27T15:00:59.895Z,0.47
2023-03-27T15:03:33.834Z,0.57
2023-03-27T15:06:13.405Z,0.50
2023-03-27T15:08:50.329Z,0.60
2023-03-27T15:11:38.904Z,0.60
2023-03-27T15:14:25.766Z,0.60
2023-03-27T15:16:58.961Z,0.60
2023-03-27T15:19:32.610Z,0.70
2023-03-27T15:22:05.027Z,0.80
2023-03-27T15:24:31.506Z,0.50
2023-03-27T15:27:00.962Z,1.00
2023-03-27T15:30:05.641Z,0.70
2023-03-27T15:32:42.859Z,0.63
2023-03-27T15:35:18.115Z,0.60
2023-03-27T15:37:45.280Z,0.80
2023-03-27T15:40:14.273Z,0.60
2023-03-27T15:42:52.516Z,0.63
2023-03-27T15:45:34.218Z,0.70
2023-03-27T15:48:16.025Z,0.60
2023-03-27T15:51:03.556Z,0.80
2023-03-27T15:53:38.057Z,0.70
2023-03-27T15:56:06.523Z,0.70
2023-03-27T15:59:11.830Z,0.50
2023-03-27T16:01:42.063Z,0.50
2023-03-27T16:04:15.514Z,0.50
2023-03-27T16:06:46.120Z,0.60
2023-03-27T16:09:28.322Z,0.80
2023-03-27T16:11:57.503Z,0.60
2023-03-27T16:14:40.763Z,0.80
2023-03-27T16:17:16.878Z,0.57
2023-03-27T16:20:16.958Z,0.50
2023-03-27T16:22:43.447Z,0.73
2023-03-27T16:25:11.921Z,0.63
2023-03-27T16:27:40.042Z,0.83
2023-03-27T16:30:09.236Z,0.70
2023-03-27T16:32:36.849Z,0.77
2023-03-27T16:35:03.450Z,0.70
2023-03-27T16:37:29.884Z,0.70
2023-03-27T16:39:56.767Z,0.70
2023-03-27T16:42:26.201Z,0.73
2023-03-27T16:44:53.606Z,0.73
2023-03-27T16:47:22.955Z,0.90
2023-03-27T16:50:03.550Z,0.83
2023-03-27T16:52:36.290Z,0.70
2023-03-27T16:55:04.615Z,0.60
2023-03-27T16:57:33.015Z,0.70
2023-03-27T16:59:59.458Z,0.80
2023-03-27T17:02:26.595Z,0.57
2023-03-27T17:04:53.240Z,0.70
2023-03-27T17:07:19.752Z,0.50
2023-03-27T17:09:46.391Z,0.50
2023-03-27T17:12:12.834Z,0.50
2023-03-27T17:14:39.364Z,0.50
2023-03-27T17:17:05.861Z,0.47
2023-03-27T17:19:32.456Z,0.60
2023-03-27T17:21:58.883Z,0.50
2023-03-27T17:24:25.530Z,0.70
2023-03-27T17:26:51.981Z,0.70
2023-03-27T17:29:18.888Z,0.43
2023-03-27T17:31:46.003Z,0.40
2023-03-27T17:34:13.119Z,0.50
2023-03-27T17:36:45.268Z,0.50
2023-03-27T17:39:18.984Z,0.60
2023-03-27T17:41:45.480Z,0.57
2023-03-27T17:44:13.168Z,0.47
2023-03-27T17:46:39.712Z,0.47
2023-03-27T17:49:06.175Z,0.40
2023-03-27T17:51:34.090Z,0.40
2023-03-27T17:54:00.775Z,0.50
2023-03-27T17:56:27.343Z,0.50
2023-03-27T17:58:54.014Z,0.40
2023-03-27T18:01:22.243Z,0.63
2023-03-27T18:03:49.686Z,0.60
2023-03-27T18:06:17.604Z,0.60
2023-03-27T18:08:45.721Z,0.50
2023-03-27T18:11:14.147Z,0.60
2023-03-27T18:13:41.449Z,0.70
2023-03-27T18:16:10.643Z,0.60
2023-03-27T18:18:38.925Z,0.60
2023-03-27T18:21:07.375Z,0.83
2023-03-27T18:23:35.045Z,0.63
2023-03-27T18:26:08.177Z,0.90
2023-03-27T18:28:35.706Z,1.03
2023-03-27T18:31:04.932Z,0.67
2023-03-27T18:33:31.926Z,0.60
2023-03-27T18:35:58.974Z,0.60
2023-03-27T18:38:27.612Z,0.70
2023-03-27T18:40:56.824Z,0.80
2023-03-27T18:43:24.006Z,0.80
2023-03-27T18:46:02.457Z,0.70
2023-03-27T18:48:30.892Z,0.60
2023-03-27T18:50:59.823Z,0.60
2023-03-27T18:53:26.707Z,0.80
2023-03-27T18:55:54.063Z,0.60
2023-03-27T18:58:24.104Z,0.70
2023-03-27T19:00:51.496Z,0.80
2023-03-27T19:03:23.446Z,0.77
2023-03-27T19:05:51.585Z,0.70
2023-03-27T19:08:20.165Z,0.60
2023-03-27T19:10:46.719Z,0.80
2023-03-27T19:13:18.100Z,0.70
2023-03-27T19:16:14.244Z,0.80
2023-03-27T19:19:11.117Z,1.10
2023-03-27T19:21:52.949Z,4.10
2023-03-27T19:24:44.883Z,18.27
2023-03-27T19:27:23.558Z,5.00
2023-03-27T19:29:51.838Z,15.53
2023-03-27T19:32:18.334Z,9.20
2023-03-27T19:34:44.795Z,3.30
2023-03-27T19:37:11.254Z,1.30
2023-03-27T19:39:37.884Z,1.07
2023-03-27T19:42:04.698Z,0.80
2023-03-27T19:44:34.373Z,0.90
2023-03-27T19:47:03.575Z,0.80
2023-03-27T19:49:30.415Z,0.60
2023-03-27T19:52:20.094Z,0.63
2023-03-27T19:54:47.015Z,1.00
2023-03-27T19:57:13.968Z,1.80
2023-03-27T19:59:40.598Z,2.40
2023-03-27T20:02:07.345Z,2.33
2023-03-27T20:04:33.844Z,2.17
2023-03-27T20:07:01.949Z,2.27
2023-03-27T20:09:28.691Z,2.20
2023-03-27T20:11:55.231Z,2.00
2023-03-27T20:14:21.718Z,2.57
2023-03-27T20:16:48.315Z,2.33
2023-03-27T20:19:16.646Z,2.67
2023-03-27T20:21:43.778Z,2.80
2023-03-27T20:24:14.262Z,2.97
2023-03-27T20:26:48.027Z,3.17
2023-03-27T20:29:20.155Z,2.97
2023-03-27T20:31:47.921Z,2.03
2023-03-27T20:34:14.975Z,1.93
2023-03-27T20:36:43.270Z,2.17
2023-03-27T20:39:31.181Z,2.07
2023-03-27T20:41:59.226Z,1.97
2023-03-27T20:44:36.090Z,1.97
2023-03-27T20:47:12.049Z,2.10
2023-03-27T20:49:45.631Z,2.50
2023-03-27T20:52:15.353Z,2.40
2023-03-27T20:54:42.220Z,2.73
2023-03-27T20:57:11.132Z,2.23
2023-03-27T20:59:37.853Z,2.30
2023-03-27T21:02:05.034Z,1.90
2023-03-27T21:04:31.784Z,1.87
2023-03-27T21:06:58.780Z,1.57
2023-03-27T21:09:26.460Z,1.40
2023-03-27T21:11:55.014Z,1.73
2023-03-27T21:14:21.836Z,1.30
2023-03-27T21:16:48.343Z,1.33
2023-03-27T21:19:14.823Z,1.57
2023-03-27T21:21:41.482Z,1.47
2023-03-27T21:24:07.989Z,1.83
2023-03-27T21:26:35.360Z,1.83
2023-03-27T21:29:02.998Z,1.87
2023-03-27T21:31:29.598Z,1.50
2023-03-27T21:33:56.159Z,1.60
2023-03-27T21:36:22.907Z,1.90
2023-03-27T21:38:49.415Z,1.80
2023-03-27T21:41:17.237Z,1.70
2023-03-27T21:43:44.266Z,1.50
2023-03-27T21:46:11.095Z,1.90
2023-03-27T21:48:37.716Z,1.90
2023-03-27T21:51:06.306Z,1.93
2023-03-27T21:53:33.070Z,2.00
2023-03-27T21:55:59.887Z,2.27
2023-03-27T21:58:27.283Z,2.37
2023-03-27T22:00:57.261Z,2.80
2023-03-27T22:03:24.836Z,2.50
2023-03-27T22:06:01.051Z,2.10
2023-03-27T22:08:36.679Z,2.00
2023-03-27T22:11:03.470Z,1.90
2023-03-27T22:13:29.929Z,1.47
2023-03-27T22:15:56.852Z,1.47
2023-03-27T22:18:23.967Z,1.57
2023-03-27T22:20:50.856Z,1.60
2023-03-27T22:23:17.306Z,1.50
2023-03-27T22:25:51.334Z,1.47
2023-03-27T22:28:18.001Z,1.70
2023-03-27T22:30:44.448Z,1.53
2023-03-27T22:33:10.961Z,1.47
2023-03-27T22:35:37.495Z,1.50
2023-03-27T22:38:03.935Z,1.50
2023-03-27T22:40:30.408Z,1.87
2023-03-27T22:42:56.918Z,1.70
2023-03-27T22:45:23.342Z,1.43
2023-03-27T22:47:49.827Z,1.63
2023-03-27T22:50:16.356Z,1.50
2023-03-27T22:52:42.799Z,1.70
2023-03-27T22:55:09.496Z,1.50
2023-03-27T22:57:36.781Z,1.40
2023-03-27T23:00:05.814Z,1.67
2023-03-27T23:02:32.406Z,1.70
2023-03-27T23:04:58.897Z,1.93
2023-03-27T23:07:25.337Z,1.80
2023-03-27T23:09:51.831Z,1.87
2023-03-27T23:12:18.291Z,1.77
2023-03-27T23:14:44.712Z,1.57
2023-03-27T23:17:11.194Z,1.70
2023-03-27T23:19:37.703Z,1.80
2023-03-27T23:22:04.247Z,1.67
2023-03-27T23:24:30.985Z,1.67
2023-03-27T23:26:57.450Z,1.50
2023-03-27T23:29:23.892Z,1.17
2023-03-27T23:31:50.645Z,1.67
2023-03-27T23:34:17.148Z,1.40
2023-03-27T23:36:43.577Z,1.20
2023-03-27T23:39:10.130Z,1.40
2023-03-27T23:41:36.671Z,1.10
2023-03-27T23:44:03.443Z,1.33
2023-03-27T23:46:30.085Z,1.30
2023-03-27T23:48:56.605Z,1.23
2023-03-27T23:51:23.676Z,1.43
2023-03-27T23:53:50.502Z,1.30
2023-03-27T23:56:16.940Z,1.70
2023-03-27T23:58:43.402Z,1.30
